Porter Corners, New York
Current Conditions -  °F | °C
As of 11:53 AM on Thursday 27 Nov 2014 (Local Time) from KGFL Reporting Station
Overcast Overcast  
Wind Chill: 24°   Ceiling: 2700
Heat Index: 30°   Visibility: 10mi
Dew Point: 24°   Wind: 6mph
Humidity: 79%   Direction: 90°E
Pressure: 30.02"   Gusts: NA
Location:  43.15°N, 73.89°W
Report Text: KGFL 271653Z AUTO 09005KT 10SM OVC027 M01/M04 A3002 RMK AO2 SLP174 T10111044
Loading
Personal Weather Stations






























Interactive Weather Map New forecast layout! Learn more

10-Day Weather Forecast

Advertisements
Track Severe Weather on mobile